Daffan, Texas
Current Conditions -  °F | °C
As of 3:15 AM on Thursday 18 Dec 2014 (Local Time) from KEDC Reporting Station
Haze Haze  
Wind Chill: 43°   Ceiling: 300
Heat Index: 46°   Visibility: 1mi
Dew Point: 46°   Wind: 7mph
Humidity: 100%   Direction: 10°N
Pressure: 30.1"   Gusts: NA
Location:  30.352°N, 97.5205°W
Report Text: KEDC 180915Z AUTO 01006KT 1SM BR OVC003 08/08 A3010 RMK AO2
Loading
Personal Weather Stations






























Interactive Weather Map New forecast layout! Learn more

10-Day Weather Forecast

Advertisements
Track Severe Weather on mobile